Latest Weather Observations for Kyabram

IDV60801

Issued at 11:32 pm EST Tuesday 27 September 2016 (issued every 30 minutes, with the page automatically refreshed every 10 minutes)

About weather observations | Map of weather stations | Latest weather observations for VIC | Other Formats
Station Details ID: 080091 Name: KYABRAM Lat: -36.34 Lon: 145.06 Height: 105.0 m
Data from the previous 72 hours. | See also: Recent months at Kyabram
Date/Time
EST
Temp
°C
App
Temp
°C
Dew
Point
°C
Rel
Hum
%
Delta-T
°C
Wind Press
QNH
hPa
Press
MSL
hPa
Rain since
9am
mm
Dir  Spd
km/h
Gust
km/h
Spd
kts
Gust
kts
27/11:30pm 6.5 5.6 5.9 96 0.3 CALM 0 0 0 0 - - 0.0
27/11:00pm 6.6 5.7 5.9 95 0.3 CALM 0 0 0 0 - - 0.0
27/10:30pm 7.0 6.1 5.9 93 0.5 CALM 0 0 0 0 - - 0.0
27/10:00pm 7.4 6.6 6.5 94 0.4 CALM 0 0 0 0 - - 0.0
27/09:30pm 7.3 6.4 6.2 93 0.5 CALM 0 0 0 0 - - 0.0
27/09:00pm 7.5 6.6 6.0 90 0.7 CALM 0 0 0 0 - - 0.0
27/08:30pm 8.6 7.7 6.2 85 1.1 CALM 0 0 0 0 - - 0.0
27/08:00pm 9.5 7.9 6.4 81 1.4 WNW 4 9 2 5 - - 0.0
27/07:30pm 10.2 8.3 6.7 79 1.7 WNW 6 15 3 8 - - 0.0
27/07:00pm 11.1 9.1 7.0 76 2.0 NW 7 15 4 8 - - 0.0
27/06:30pm 12.4 10.7 7.7 73 2.3 WNW 6 13 3 7 - - 0.0
27/06:00pm 13.3 12.9 8.4 72 2.5 CALM 0 9 0 5 - - 0.0
27/05:30pm 13.5 13.6 10.3 81 1.7 CALM 0 0 0 0 - - 0.0
27/05:00pm 14.0 13.8 9.2 73 2.5 CALM 0 0 0 0 - - 0.0
27/04:30pm 14.6 14.2 9.6 72 2.6 NW 2 7 1 4 - - 0.0
27/04:00pm 14.9 14.2 8.6 66 3.2 WNW 2 11 1 6 - - 0.0
27/03:30pm 15.2 13.9 9.8 70 2.8 WNW 7 15 4 8 - - 0.0
27/03:00pm 14.0 13.9 9.6 75 2.3 CALM 0 0 0 0 - - 0.0
27/02:30pm 14.2 14.0 9.0 71 2.7 CALM 0 0 0 0 - - 0.0
27/02:00pm 14.3 12.4 9.1 71 2.7 SW 9 13 5 7 - - 0.0
27/01:30pm 14.6 12.4 9.2 70 2.8 SSW 11 19 6 10 - - 0.0
27/01:00pm 14.3 11.2 8.7 69 2.8 SSW 15 24 8 13 - - 0.0
27/12:30pm 14.1 11.9 9.3 73 2.5 SW 11 19 6 10 - - 0.0
27/12:00pm 13.3 10.9 8.6 73 2.4 SW 11 17 6 9 - - 0.0
27/11:30am 13.1 10.3 8.6 74 2.3 SW 13 22 7 12 - - 0.0
27/11:00am 12.0 9.4 7.7 75 2.1 SW 11 19 6 10 - - 0.0
27/10:30am 12.3 10.0 9.1 81 1.6 W 11 19 6 10 - - 0.0
27/10:00am 11.4 9.0 8.8 84 1.3 W 11 20 6 11 - - 0.0
27/09:30am 10.1 7.4 7.5 84 1.2 W 11 19 6 10 - - 0.0
27/09:00am 9.7 7.7 8.5 92 0.6 W 9 13 5 7 - - 2.8
27/08:30am 9.0 6.4 7.8 92 0.6 WNW 11 17 6 9 - - 2.8
27/08:00am 7.5 5.2 7.4 99 0.0 W 9 17 5 9 - - 2.8
27/07:30am 6.2 3.6 6.1 99 0.0 WNW 9 17 5 9 - - 2.8
27/07:00am 4.9 3.7 4.8 99 0.0 CALM 0 0 0 0 - - 2.8
27/06:30am 3.9 2.5 3.8 99 0.0 CALM 0 2 0 1 - - 2.8
27/06:00am 3.8 1.3 3.7 99 0.0 W 6 9 3 5 - - 2.8
27/05:30am 4.3 1.3 4.2 99 0.0 W 9 15 5 8 - - 2.8
27/05:00am 4.7 1.8 4.6 99 0.0 WNW 9 15 5 8 - - 2.8
27/04:30am 4.8 2.3 4.7 99 0.0 WNW 7 11 4 6 - - 2.8
27/04:00am 5.1 2.8 5.0 99 0.0 NW 6 11 3 6 - - 2.8
27/03:30am 5.3 2.9 5.2 99 0.0 WNW 7 11 4 6 - - 2.8
27/03:00am 5.8 3.1 5.7 99 0.0 W 9 13 5 7 - - 2.8
27/02:30am 5.8 3.7 5.7 99 0.0 NW 6 9 3 5 - - 2.8
27/02:00am 6.3 4.3 6.2 99 0.0 W 6 9 3 5 - - 2.8
27/01:30am 6.4 4.4 6.3 99 0.0 WNW 6 9 3 5 - - 2.8
27/01:00am 6.9 5.0 6.8 99 0.0 WNW 6 7 3 4 - - 2.8
27/12:30am 7.3 6.7 7.2 99 0.0 CALM 0 0 0 0 - - 2.8
27/12:00am 8.2 7.8 8.1 99 0.0 CALM 0 0 0 0 - - 2.8
 
Date/Time
EST
Temp
°C
App
Temp
°C
Dew
Point
°C
Rel
Hum
%
Delta-T
°C
Wind Press
QNH
hPa
Press
MSL
hPa
Rain since
9am
mm
Dir  Spd
km/h
Gust
km/h
Spd
kts
Gust
kts
26/11:30pm 8.9 8.6 8.6 98 0.1 CALM 0 0 0 0 - - 2.8
26/11:00pm 9.6 7.8 9.5 99 0.0 W 9 17 5 9 - - 2.4
26/10:30pm 10.2 8.8 9.6 96 0.3 WNW 7 11 4 6 - - 0.6
26/10:00pm 10.2 9.0 9.6 96 0.3 NW 6 9 3 5 - - 0.6
26/09:30pm 10.0 8.1 9.1 94 0.4 NNW 9 13 5 7 - - 0.6
26/09:00pm 10.9 8.9 8.7 86 1.1 N 9 17 5 9 - - 0.4
26/08:30pm 11.4 7.8 8.4 82 1.5 NNW 17 22 9 12 - - 0.4
26/08:00pm 11.9 10.2 8.2 78 1.8 NW 7 22 4 12 - - 0.4
26/07:30pm 11.1 10.5 7.2 77 1.9 CALM 0 0 0 0 - - 0.0
26/07:00pm 11.3 10.6 7.0 75 2.1 CALM 0 0 0 0 - - 0.0
26/06:30pm 11.8 11.1 7.1 73 2.3 CALM 0 0 0 0 - - 0.0
26/06:00pm 12.4 12.0 8.3 76 2.0 CALM 0 0 0 0 - - 0.0
26/05:30pm 13.3 12.7 7.5 68 2.9 CALM 0 0 0 0 - - 0.0
26/05:00pm 15.3 12.7 7.6 60 3.8 NNW 11 17 6 9 - - 0.0
26/04:30pm 16.0 13.0 7.5 57 4.3 NNW 13 20 7 11 - - 0.0
26/04:00pm 16.5 14.1 8.5 59 4.1 NW 11 22 6 12 - - 0.0
26/03:30pm 15.4 12.9 6.7 56 4.3 WNW 9 17 5 9 - - 0.0
26/03:00pm 15.6 13.6 8.8 64 3.5 NW 9 19 5 10 - - 0.0
26/02:30pm 15.4 12.5 6.4 55 4.4 WNW 11 19 6 10 - - 0.0
26/02:00pm 14.8 13.0 7.8 63 3.5 NW 7 15 4 8 - - 0.0
26/01:30pm 15.1 14.4 6.9 58 4.0 CALM 0 4 0 2 - - 0.0
26/01:00pm 13.9 12.0 7.4 65 3.2 NW 7 13 4 7 - - 0.0
26/12:30pm 14.7 11.7 7.5 62 3.6 NW 13 20 7 11 - - 0.0
26/12:00pm 15.4 12.9 8.4 63 3.6 NW 11 17 6 9 - - 0.0
26/11:30am 14.6 11.0 6.9 60 3.8 NNW 15 24 8 13 - - 0.0
26/11:00am 15.2 12.6 9.3 68 3.0 NNW 13 22 7 12 - - 0.0
26/10:30am 14.6 11.9 7.4 62 3.6 NW 11 17 6 9 - - 0.0
26/10:00am 13.6 13.2 8.4 71 2.6 CALM 0 0 0 0 - - 0.0
26/09:30am 12.4 10.5 9.1 80 1.7 NNW 9 11 5 6 - - 0.0
26/09:00am 11.4 11.4 9.7 89 0.9 CALM 0 0 0 0 - - 0.2
26/08:30am 10.8 10.7 9.4 91 0.7 CALM 0 0 0 0 - - 0.2
26/08:00am 10.2 10.1 9.6 96 0.3 CALM 0 0 0 0 - - 0.2
26/07:30am 9.5 9.4 9.4 99 0.0 CALM 0 0 0 0 - - 0.2
26/07:00am 6.8 6.0 6.7 99 0.0 CALM 0 0 0 0 - - 0.2
26/06:30am 7.7 7.1 7.6 99 0.0 CALM 0 0 0 0 - - 0.2
26/06:00am 7.9 7.4 7.8 99 0.0 CALM 0 0 0 0 - - 0.2
26/05:30am 8.0 7.4 7.6 97 0.2 CALM 0 0 0 0 - - 0.2
26/05:00am 8.5 6.4 8.4 99 0.0 S 9 15 5 8 - - 0.2
26/04:30am 8.4 7.2 8.1 98 0.1 W 4 9 2 5 - - 0.2
26/04:00am 7.9 7.4 7.8 99 0.0 CALM 0 6 0 3 - - 0.2
26/03:30am 7.6 7.0 7.3 98 0.1 CALM 0 2 0 1 - - 0.2
26/03:00am 7.5 6.9 7.4 99 0.0 CALM 0 0 0 0 - - 0.2
26/02:30am 7.5 6.9 7.2 98 0.1 CALM 0 0 0 0 - - 0.2
26/02:00am 7.8 7.3 7.7 99 0.0 CALM 0 0 0 0 - - 0.2
26/01:30am 7.6 6.9 7.0 96 0.3 CALM 0 0 0 0 - - 0.2
26/01:00am 6.9 6.1 6.5 97 0.2 CALM 0 0 0 0 - - 0.2
26/12:30am 6.6 5.7 6.2 97 0.2 CALM 0 0 0 0 - - 0.2
26/12:00am 6.6 5.7 6.0 96 0.3 CALM 0 0 0 0 - - 0.2
 
Date/Time
EST
Temp
°C
App
Temp
°C
Dew
Point
°C
Rel
Hum
%
Delta-T
°C
Wind Press
QNH
hPa
Press
MSL
hPa
Rain since
9am
mm
Dir  Spd
km/h
Gust
km/h
Spd
kts
Gust
kts
25/11:30pm 6.3 5.3 5.6 95 0.3 CALM 0 0 0 0 - - 0.2
25/11:00pm 6.8 6.0 6.4 97 0.2 CALM 0 0 0 0 - - 0.2
25/10:30pm 6.7 5.7 5.8 94 0.4 CALM 0 0 0 0 - - 0.2
25/10:00pm 7.4 6.5 6.2 92 0.5 CALM 0 0 0 0 - - 0.2
25/09:30pm 7.0 6.1 5.9 93 0.5 CALM 0 0 0 0 - - 0.2
25/09:00pm 8.3 7.4 5.9 85 1.1 CALM 0 0 0 0 - - 0.2
25/08:30pm 9.3 8.4 5.9 79 1.6 CALM 0 0 0 0 - - 0.2
25/08:00pm 9.9 9.0 6.1 77 1.8 CALM 0 0 0 0 - - 0.2
25/07:30pm 10.0 9.2 6.5 79 1.6 CALM 0 0 0 0 - - 0.2
25/07:00pm 10.2 9.3 6.2 76 1.9 CALM 0 0 0 0 - - 0.2
25/06:30pm 11.1 9.8 6.0 71 2.4 WNW 2 9 1 5 - - 0.2
25/06:00pm 12.2 9.9 5.6 64 3.1 W 7 13 4 7 - - 0.2
25/05:30pm 13.4 10.7 5.6 59 3.7 WSW 9 17 5 9 - - 0.2
25/05:00pm 14.5 11.4 5.6 55 4.2 WSW 11 19 6 10 - - 0.2
25/04:30pm 14.8 11.1 4.5 50 4.8 WSW 13 20 7 11 - - 0.2
25/04:00pm 15.0 11.0 5.0 51 4.7 SW 15 24 8 13 - - 0.2
25/03:30pm 15.7 12.8 6.7 55 4.4 WSW 11 20 6 11 - - 0.2
25/03:00pm 15.4 11.0 5.0 50 4.9 WSW 17 24 9 13 - - 0.2
25/02:30pm 15.7 12.5 6.7 55 4.4 WSW 13 26 7 14 - - 0.2
25/02:00pm 15.1 11.4 6.1 55 4.4 SW 15 24 8 13 - - 0.2
25/01:30pm 14.7 10.6 6.3 57 4.1 SW 17 28 9 15 - - 0.2
25/01:00pm 13.7 9.3 4.8 55 4.1 SSW 17 28 9 15 - - 0.2
25/12:30pm 14.7 10.8 7.3 61 3.7 SW 17 30 9 16 - - 0.2
25/12:00pm 14.6 10.9 8.1 65 3.3 WSW 17 28 9 15 - - 0.2
25/11:30am 13.9 9.8 6.0 59 3.8 SW 17 28 9 15 - - 0.0
25/11:00am 13.5 9.3 5.9 60 3.6 SSW 17 28 9 15 - - 0.0
25/10:30am 13.0 8.8 5.7 61 3.4 SW 17 28 9 15 - - 0.0
25/10:00am 12.6 8.0 5.8 63 3.2 SW 19 28 10 15 - - 0.0
25/09:30am 12.0 7.3 6.1 67 2.8 SW 20 30 11 16 - - 0.0
25/09:00am 11.7 8.3 7.8 77 1.9 SW 15 26 8 14 - - 2.6
25/08:30am 10.7 7.9 8.5 86 1.1 SSW 13 20 7 11 - - 2.6
25/08:00am 9.8 6.9 8.1 89 0.8 SW 13 24 7 13 - - 2.6
25/07:30am 9.4 6.9 8.0 91 0.7 SW 11 24 6 13 - - 2.6
25/07:00am 9.1 6.6 8.0 93 0.5 SW 11 17 6 9 - - 2.6
25/06:30am 9.2 6.8 8.6 96 0.3 SW 11 17 6 9 - - 2.6
25/06:00am 9.2 6.9 8.9 98 0.1 SW 11 22 6 12 - - 2.6
25/05:30am 9.0 6.7 8.9 99 0.0 WSW 11 19 6 10 - - 2.6
25/05:00am 9.3 8.4 9.2 99 0.0 W 4 13 2 7 - - 2.6
25/04:30am 9.9 8.6 9.8 99 0.1 WSW 7 11 4 6 - - 2.6
25/04:00am 10.4 10.5 10.2 99 0.1 CALM 0 0 0 0 - - 2.6
25/03:30am 10.9 11.1 10.7 99 0.1 CALM 0 0 0 0 - - 2.6
25/03:00am 10.9 11.1 10.7 99 0.1 CALM 0 0 0 0 - - 2.6
25/02:30am 11.0 11.3 10.8 99 0.1 CALM 0 0 0 0 - - 2.6
25/02:00am 11.0 11.3 10.8 99 0.1 CALM 0 0 0 0 - - 2.4
25/01:30am 11.1 11.4 10.9 99 0.1 CALM 0 0 0 0 - - 2.2
25/01:00am 11.3 11.7 11.1 99 0.1 CALM 0 4 0 2 - - 1.8
25/12:30am 11.6 12.0 11.4 99 0.1 CALM 0 0 0 0 - - 1.2
25/12:00am 11.8 11.0 11.6 99 0.1 W 7 15 4 8 - - 0.8

Other Formats:

Comma delimited format used in spreadsheet applications
http://www.bom.gov.au/fwo/IDV60801/IDV60801.95833.axf

JavaScript Object Notation format (JSON) in row-major order
http://www.bom.gov.au/fwo/IDV60801/IDV60801.95833.json